Time;durP1;ratioP1;P1;durP2;ratioP2;P2;SDS_P1;SDS_P2;PMS_P1;PMS_P2;Temp;Humidity;BMP_temperature;BMP_pressure;BME280_temperature;BME280_humidity;BME280_pressure;Samples;Min_cycle;Max_cycle;Signal;HPM_P1;HPM_P2
2023/11/12 12:57:07;;;;;;;6.35;4.43;;;;;;;11.00;63.42;97402.00;5128344;27;20137;-73
2023/11/12 12:59:35;;;;;;;5.90;3.92;;;;;;;10.81;63.77;97400.88;5129086;28;20031;-74
2023/11/12 13:02:01;;;;;;;7.75;4.65;;;;;;;10.45;64.50;97372.22;5103578;28;20031;-74
2023/11/12 13:04:27;;;;;;;6.72;4.35;;;;;;;10.41;64.64;97384.56;5105869;28;20202;-74
2023/11/12 13:06:52;;;;;;;5.57;4.30;;;;;;;10.28;65.07;97399.31;5089014;28;20020;-73
2023/11/12 13:09:26;;;;;;;5.95;4.63;;;;;;;10.12;65.55;97394.13;5090922;28;20108;-73
2023/11/12 13:11:52;;;;;;;5.43;3.92;;;;;;;9.94;66.20;97389.16;5125059;27;20032;-74
2023/11/12 13:14:19;;;;;;;6.38;4.85;;;;;;;9.77;66.79;97399.25;5074241;28;20020;-74
2023/11/12 13:16:45;;;;;;;5.53;4.25;;;;;;;9.71;66.66;97404.56;5109022;28;20028;-74
2023/11/12 13:19:15;;;;;;;6.85;4.80;;;;;;;9.55;66.77;97392.09;5091096;28;20099;-74
2023/11/12 13:21:47;;;;;;;4.80;4.32;;;;;;;9.58;66.99;97396.97;5108955;28;20131;-74
2023/11/12 13:24:14;;;;;;;7.88;6.47;;;;;;;9.63;67.20;97410.44;5073630;28;20042;-74
2023/11/12 13:26:42;;;;;;;6.93;6.25;;;;;;;9.65;66.93;97397.56;5056990;28;20019;-74
2023/11/12 13:29:08;;;;;;;12.40;9.70;;;;;;;9.73;67.27;97405.13;5090564;28;20077;-73
2023/11/12 13:31:35;;;;;;;6.70;6.00;;;;;;;9.71;67.16;97407.28;5090587;28;20020;-73
2023/11/12 13:34:01;;;;;;;10.43;6.20;;;;;;;9.64;67.27;97385.16;5073674;28;20444;-74
2023/11/12 13:36:27;;;;;;;5.25;4.75;;;;;;;9.81;67.37;97411.91;5089861;28;20031;-74
2023/11/12 13:38:53;;;;;;;8.68;5.60;;;;;;;9.81;67.38;97398.47;5113521;28;20040;-74
2023/11/12 13:41:20;;;;;;;8.13;6.00;;;;;;;9.82;67.11;97396.59;5089036;28;20050;-74
2023/11/12 13:43:46;;;;;;;7.10;5.45;;;;;;;9.84;67.21;97406.03;5090700;28;20055;-74
2023/11/12 13:46:12;;;;;;;8.52;5.78;;;;;;;9.91;67.44;97409.31;5108148;28;20638;-74
2023/11/12 13:48:38;;;;;;;7.75;6.05;;;;;;;10.00;67.25;97409.63;5090437;28;20100;-72
2023/11/12 13:51:08;;;;;;;6.47;5.25;;;;;;;10.03;67.16;97415.31;5090254;28;20418;-74
2023/11/12 13:53:33;;;;;;;6.40;4.78;;;;;;;9.99;66.87;97406.09;5090990;28;20115;-74
2023/11/12 13:56:00;;;;;;;7.65;6.25;;;;;;;10.02;67.21;97413.66;5108141;28;20450;-74
2023/11/12 13:58:26;;;;;;;9.27;7.00;;;;;;;10.02;67.07;97413.66;5072882;28;20070;-74
2023/11/12 14:00:51;;;;;;;8.80;5.40;;;;;;;9.99;67.10;97424.94;5089988;28;20055;-74
2023/11/12 14:03:17;;;;;;;6.38;4.95;;;;;;;10.04;66.23;97421.47;5108008;28;20031;-74
2023/11/12 14:05:43;;;;;;;5.82;4.30;;;;;;;9.94;66.77;97406.06;5073214;28;20023;-73
2023/11/12 14:08:09;;;;;;;6.97;4.50;;;;;;;9.87;66.51;97410.06;5096022;28;20043;-74
2023/11/12 14:10:34;;;;;;;5.93;4.80;;;;;;;9.77;67.29;97428.81;5094503;28;20383;-74
2023/11/12 14:13:02;;;;;;;5.05;4.55;;;;;;;9.66;67.46;97426.03;5094423;28;20036;-74
2023/11/12 14:15:33;;;;;;;5.80;5.30;;;;;;;9.51;67.00;97428.63;5076205;28;20496;-74
2023/11/12 14:17:58;;;;;;;5.72;5.18;;;;;;;9.47;67.52;97427.53;5076886;28;20028;-74
2023/11/12 14:20:25;;;;;;;5.47;4.70;;;;;;;9.47;67.60;97440.97;5059502;28;20515;-72
2023/11/12 14:22:51;;;;;;;8.13;5.65;;;;;;;9.31;67.35;97431.13;5094200;28;20047;-73
2023/11/12 14:25:18;;;;;;;5.57;5.07;;;;;;;9.24;67.31;97435.88;5096347;28;20020;-72
2023/11/12 14:27:45;;;;;;;6.40;5.10;;;;;;;9.29;67.67;97437.84;5069576;28;20024;-72
2023/11/12 14:30:13;;;;;;;6.60;4.70;;;;;;;9.18;66.89;97444.97;5087840;28;20032;-73
2023/11/12 14:32:41;;;;;;;7.95;4.88;;;;;;;9.10;67.27;97432.03;5085759;28;20042;-72
2023/11/12 14:35:07;;;;;;;7.32;4.85;;;;;;;9.06;66.97;97430.88;5110196;28;20035;-73
2023/11/12 14:37:33;;;;;;;6.13;5.63;;;;;;;9.11;67.50;97449.75;5055795;28;20032;-71
2023/11/12 14:39:59;;;;;;;6.13;5.28;;;;;;;9.03;67.99;97440.25;5093049;28;20028;-71
2023/11/12 14:42:25;;;;;;;6.03;5.00;;;;;;;8.95;68.07;97439.91;5093819;28;20704;-72
2023/11/12 14:44:51;;;;;;;8.75;6.00;;;;;;;8.89;68.21;97440.91;5075846;28;20020;-72
2023/11/12 14:47:17;;;;;;;7.78;6.57;;;;;;;8.74;68.45;97432.69;5075432;28;20028;-72
2023/11/12 14:49:45;;;;;;;6.43;5.28;;;;;;;8.66;68.11;97425.09;5094046;28;20480;-71
2023/11/12 14:52:14;;;;;;;7.50;5.60;;;;;;;8.54;68.28;97416.34;5076424;28;20028;-71
2023/11/12 14:54:44;;;;;;;11.90;7.95;;;;;;;8.67;68.44;97432.88;5062647;28;20031;-72
2023/11/12 14:57:09;;;;;;;10.45;8.90;;;;;;;8.61;68.91;97433.06;5075298;28;20043;-72
2023/11/12 14:59:36;;;;;;;9.70;8.70;;;;;;;8.52;69.21;97416.59;5093926;28;20020;-72
2023/11/12 15:02:02;;;;;;;8.43;6.30;;;;;;;8.53;68.77;97433.50;5095224;28;20112;-73
2023/11/12 15:04:28;;;;;;;9.48;7.30;;;;;;;8.49;69.22;97435.06;5060772;28;20508;-72
2023/11/12 15:06:53;;;;;;;11.95;7.82;;;;;;;8.40;69.33;97415.09;5040204;28;20029;-73
2023/11/12 15:09:19;;;;;;;13.05;9.90;;;;;;;8.37;70.17;97420.97;5094296;28;20035;-73
2023/11/12 15:11:45;;;;;;;14.38;9.65;;;;;;;8.33;69.69;97426.81;5096364;28;20067;-72
2023/11/12 15:14:10;;;;;;;11.93;8.43;;;;;;;8.28;70.26;97418.69;5076323;28;20028;-72
2023/11/12 15:16:37;;;;;;;9.98;6.72;;;;;;;8.25;70.36;97419.19;5080219;28;20374;-72
2023/11/12 15:19:02;;;;;;;10.48;7.28;;;;;;;8.19;70.79;97425.53;5093535;28;20476;-72
2023/11/12 15:21:28;;;;;;;10.35;6.60;;;;;;;8.12;71.03;97422.22;5094157;28;20202;-73
2023/11/12 15:23:53;;;;;;;11.75;8.00;;;;;;;8.08;70.63;97423.78;5075884;28;20016;-71
2023/11/12 15:26:19;;;;;;;8.88;6.38;;;;;;;8.06;70.83;97425.06;5080501;28;20400;-72
2023/11/12 15:28:47;;;;;;;7.18;4.88;;;;;;;7.88;71.39;97406.59;5094117;28;20028;-74
2023/11/12 15:31:12;;;;;;;6.80;4.70;;;;;;;7.83;72.25;97410.00;5093988;28;20047;-74
2023/11/12 15:33:38;;;;;;;5.38;3.88;;;;;;;7.86;71.56;97425.63;5093822;28;20024;-74
2023/11/12 15:36:06;;;;;;;9.65;4.55;;;;;;;7.81;71.90;97422.03;5075655;28;20083;-76
2023/11/12 15:38:33;;;;;;;5.97;4.30;;;;;;;7.74;72.49;97430.25;5076060;28;20031;-72
2023/11/12 15:40:58;;;;;;;7.05;4.97;;;;;;;7.68;72.33;97433.88;5060826;28;20032;-73
2023/11/12 15:43:24;;;;;;;7.95;4.63;;;;;;;7.61;72.84;97444.78;5086900;28;20476;-72
2023/11/12 15:45:49;;;;;;;5.63;4.70;;;;;;;7.58;72.61;97439.09;5069321;28;20673;-73
2023/11/12 15:48:15;;;;;;;5.97;4.63;;;;;;;7.53;72.40;97431.00;5074906;28;20024;-72
2023/11/12 15:50:43;;;;;;;6.35;4.85;;;;;;;7.51;72.47;97438.47;5075508;28;20112;-75
2023/11/12 15:53:09;;;;;;;5.38;4.78;;;;;;;7.44;73.06;97443.16;5062004;28;20488;-74
2023/11/12 15:55:39;;;;;;;5.82;5.10;;;;;;;7.44;72.26;97443.97;5074861;28;20028;-73
2023/11/12 15:58:05;;;;;;;5.63;4.78;;;;;;;7.38;72.81;97444.94;5083883;28;20107;-74
2023/11/12 16:00:30;;;;;;;6.65;6.03;;;;;;;7.36;73.32;97451.59;5088323;28;20063;-71
2023/11/12 16:02:56;;;;;;;7.13;6.47;;;;;;;7.30;73.53;97453.38;5075145;28;20097;-71
2023/11/12 16:05:21;;;;;;;10.85;8.82;;;;;;;7.11;72.91;97437.75;5075149;28;20149;-72
2023/11/12 16:07:48;;;;;;;8.75;7.57;;;;;;;7.06;73.64;97457.22;5093354;28;20063;-72
2023/11/12 16:10:16;;;;;;;9.18;7.60;;;;;;;6.86;73.80;97438.91;5095879;28;20036;-72
2023/11/12 16:12:42;;;;;;;12.15;7.65;;;;;;;6.95;74.25;97461.56;5086085;28;20031;-72
2023/11/12 16:15:11;;;;;;;13.77;9.05;;;;;;;6.97;74.48;97456.81;5070300;28;20415;-74
2023/11/12 16:17:38;;;;;;;11.15;8.02;;;;;;;6.87;74.12;97440.56;5059173;28;20395;-73
2023/11/12 16:20:06;;;;;;;9.20;7.88;;;;;;;6.82;74.36;97444.97;5061677;28;20369;-73
2023/11/12 16:22:32;;;;;;;16.42;12.45;;;;;;;6.84;74.21;97453.56;5075008;28;20076;-72
2023/11/12 16:24:58;;;;;;;15.20;10.30;;;;;;;6.68;74.71;97441.78;5075457;28;20040;-72
2023/11/12 16:27:23;;;;;;;6.10;4.78;;;;;;;6.69;74.28;97462.16;5073065;28;20020;-73
2023/11/12 16:29:49;;;;;;;7.28;3.97;;;;;;;6.65;74.46;97460.97;5083650;28;20503;-71
2023/11/12 16:32:14;;;;;;;6.63;4.82;;;;;;;6.64;76.04;97459.38;5092479;28;20391;-72
2023/11/12 16:34:44;;;;;;;9.00;5.78;;;;;;;6.67;75.11;97463.44;5071802;28;20030;-72
2023/11/12 16:37:09;;;;;;;6.65;5.88;;;;;;;6.60;74.67;97460.91;5074736;28;20034;-72
2023/11/12 16:39:45;;;;;;;8.02;4.90;;;;;;;6.58;75.05;97459.50;5108805;28;20035;-71
2023/11/12 16:42:18;;;;;;;4.80;4.30;;;;;;;6.55;75.64;97466.13;5058478;28;20153;-73
2023/11/12 16:44:46;;;;;;;5.78;4.80;;;;;;;6.43;76.54;97454.66;5074731;28;20036;-72
2023/11/12 16:47:13;;;;;;;6.65;5.40;;;;;;;6.44;75.69;97461.59;5074192;28;20020;-74
2023/11/12 16:49:40;;;;;;;7.32;5.07;;;;;;;6.43;75.88;97468.03;5094960;28;20502;-73
2023/11/12 16:52:07;;;;;;;7.20;5.60;;;;;;;6.39;76.26;97466.88;5074662;28;20118;-72
2023/11/12 16:54:33;;;;;;;7.78;6.18;;;;;;;6.29;76.44;97463.97;5074589;28;20113;-73
2023/11/12 16:56:59;;;;;;;8.70;6.13;;;;;;;6.35;75.67;97476.41;5073785;28;20024;-73
2023/11/12 16:59:27;;;;;;;6.25;5.60;;;;;;;6.28;75.75;97474.91;5092630;28;20040;-73
2023/11/12 17:01:53;;;;;;;8.05;5.82;;;;;;;6.24;76.34;97477.22;5107672;28;20429;-72
2023/11/12 17:04:19;;;;;;;7.47;6.53;;;;;;;6.26;76.98;97477.81;5092081;28;20134;-72
2023/11/12 17:06:47;;;;;;;6.97;6.13;;;;;;;6.25;76.51;97486.91;5107568;28;20035;-73
2023/11/12 17:09:13;;;;;;;8.80;6.53;;;;;;;6.19;76.22;97477.13;5093824;28;20529;-73
2023/11/12 17:11:39;;;;;;;8.50;6.45;;;;;;;6.20;76.64;97484.09;5073526;28;20105;-73
2023/11/12 17:14:07;;;;;;;7.95;5.97;;;;;;;6.16;77.08;97483.75;5074338;28;20032;-72
2023/11/12 17:16:35;;;;;;;10.05;6.72;;;;;;;6.14;77.63;97485.03;5074298;28;20036;-73
2023/11/12 17:19:01;;;;;;;9.10;6.75;;;;;;;6.17;77.26;97495.25;5092553;28;20039;-72
2023/11/12 17:21:32;;;;;;;7.47;6.47;;;;;;;6.09;77.37;97496.41;5092298;28;20036;-72
2023/11/12 17:24:00;;;;;;;10.13;7.22;;;;;;;6.05;77.36;97497.09;5094557;28;20131;-73
2023/11/12 17:26:28;;;;;;;8.55;6.95;;;;;;;6.02;77.20;97497.59;5092675;28;20028;-73
2023/11/12 17:28:54;;;;;;;8.25;6.90;;;;;;;6.01;77.33;97506.66;5078487;28;20055;-74
2023/11/12 17:31:19;;;;;;;8.55;6.70;;;;;;;5.91;77.21;97490.38;5081831;28;20507;-72
2023/11/12 17:33:44;;;;;;;9.50;7.13;;;;;;;5.92;77.40;97513.38;5091775;28;20484;-73
2023/11/12 17:36:10;;;;;;;7.30;6.60;;;;;;;5.92;77.64;97505.38;5091600;28;20035;-72
2023/11/12 17:38:36;;;;;;;8.35;7.35;;;;;;;5.97;77.29;97500.97;5057063;28;20479;-70
2023/11/12 17:41:03;;;;;;;8.70;7.20;;;;;;;5.88;77.51;97506.88;5076544;28;20031;-71
2023/11/12 17:43:28;;;;;;;8.32;7.53;;;;;;;5.93;77.23;97507.81;5077664;28;20052;-72
2023/11/12 17:45:54;;;;;;;7.68;6.90;;;;;;;5.92;77.53;97513.38;5076877;28;20433;-72
2023/11/12 17:48:20;;;;;;;8.73;7.40;;;;;;;5.87;77.94;97515.94;5093408;28;20099;-73
2023/11/12 17:50:45;;;;;;;8.55;7.60;;;;;;;5.92;77.82;97521.41;5077051;28;20103;-73
2023/11/12 17:53:12;;;;;;;8.57;7.57;;;;;;;5.87;77.61;97532.78;5059961;28;20031;-71
2023/11/12 17:55:38;;;;;;;11.60;7.97;;;;;;;5.89;78.02;97525.34;5076876;28;20024;-73
2023/11/12 17:58:03;;;;;;;13.63;9.18;;;;;;;5.78;78.15;97512.78;5097122;28;20042;-72
2023/11/12 18:00:29;;;;;;;16.23;11.50;;;;;;;5.90;77.80;97528.84;5076767;28;20036;-71
2023/11/12 18:02:55;;;;;;;20.80;13.65;;;;;;;5.93;78.48;97536.38;5093047;28;20408;-71
2023/11/12 18:05:23;;;;;;;14.13;11.75;;;;;;;5.92;78.17;97537.44;5093186;28;20099;-71
2023/11/12 18:07:50;;;;;;;11.93;10.48;;;;;;;5.91;78.26;97535.78;5085944;28;20044;-71
2023/11/12 18:10:15;;;;;;;11.90;10.55;;;;;;;5.89;78.61;97537.88;5089610;28;20038;-73
2023/11/12 18:12:41;;;;;;;9.95;9.05;;;;;;;5.88;78.30;97544.28;5076175;28;20059;-71
2023/11/12 18:15:07;;;;;;;9.60;8.70;;;;;;;5.85;78.16;97531.38;5076289;28;20028;-71
2023/11/12 18:17:32;;;;;;;10.10;8.65;;;;;;;5.91;78.28;97538.47;5076078;28;20032;-71
2023/11/12 18:19:58;;;;;;;11.63;8.68;;;;;;;5.94;78.69;97544.19;5076406;28;20032;-72
2023/11/12 18:22:27;;;;;;;11.15;8.77;;;;;;;5.96;77.87;97541.25;5109962;28;20540;-72
2023/11/12 18:24:52;;;;;;;10.07;8.88;;;;;;;6.04;78.66;97540.94;5059862;28;20570;-72
2023/11/12 18:27:20;;;;;;;11.38;9.60;;;;;;;6.07;78.78;97537.78;5075664;28;20123;-71
2023/11/12 18:29:46;;;;;;;11.80;8.30;;;;;;;6.09;78.54;97533.03;5075997;28;20411;-73
2023/11/12 18:32:11;;;;;;;10.30;8.65;;;;;;;6.07;78.51;97527.09;5076034;28;20036;-71
2023/11/12 18:34:36;;;;;;;12.10;9.73;;;;;;;6.16;78.24;97537.19;5075905;28;20023;-73
2023/11/12 18:37:02;;;;;;;11.88;10.05;;;;;;;6.20;78.85;97540.25;5075481;28;20083;-72
2023/11/12 18:39:27;;;;;;;12.05;9.68;;;;;;;6.18;78.11;97528.97;5057181;28;20431;-71
2023/11/12 18:41:53;;;;;;;13.13;10.70;;;;;;;6.18;78.66;97523.63;5093872;28;20114;-71
2023/11/12 18:44:19;;;;;;;16.42;14.70;;;;;;;6.29;79.63;97541.50;5059036;28;20055;-73
2023/11/12 18:46:48;;;;;;;15.63;13.90;;;;;;;6.33;78.63;97541.84;5093877;28;20111;-74
2023/11/12 18:49:14;;;;;;;18.00;12.63;;;;;;;6.35;79.43;97535.22;5076248;28;20020;-73
2023/11/12 18:51:39;;;;;;;17.85;13.00;;;;;;;6.37;78.58;97527.78;5076882;28;20048;-74
2023/11/12 18:54:06;;;;;;;14.90;12.40;;;;;;;6.30;79.14;97505.72;5094179;28;20024;-75
2023/11/12 18:56:35;;;;;;;13.35;11.25;;;;;;;6.34;78.92;97506.88;5058824;28;20044;-75
2023/11/12 18:59:01;;;;;;;12.32;11.02;;;;;;;6.39;79.39;97509.66;5075503;28;20028;-74
2023/11/12 19:01:27;;;;;;;13.27;11.27;;;;;;;6.44;78.63;97517.78;5093593;28;20031;-74
2023/11/12 19:03:52;;;;;;;13.02;10.80;;;;;;;6.51;79.61;97529.16;5074721;28;20373;-74
2023/11/12 19:06:18;;;;;;;14.75;11.98;;;;;;;6.55;78.95;97541.03;5058216;28;20115;-74
2023/11/12 19:08:43;;;;;;;15.15;13.20;;;;;;;6.57;80.06;97544.28;5075403;28;20024;-74
2023/11/12 19:11:11;;;;;;;15.00;12.55;;;;;;;6.60;79.87;97549.19;5075495;28;20054;-74
2023/11/12 19:13:36;;;;;;;13.32;10.85;;;;;;;6.57;79.53;97538.13;5058579;28;20024;-73
2023/11/12 19:16:02;;;;;;;11.93;10.73;;;;;;;6.56;79.90;97521.25;5076283;28;20424;-76
2023/11/12 19:18:30;;;;;;;11.43;10.02;;;;;;;6.64;80.16;97544.97;5075171;28;20059;-75
2023/11/12 19:20:57;;;;;;;12.25;10.88;;;;;;;6.61;80.12;97539.25;5058981;28;20043;-74
2023/11/12 19:23:24;;;;;;;14.45;11.23;;;;;;;6.53;80.62;97526.25;5058694;28;20048;-73
2023/11/12 19:25:49;;;;;;;15.15;12.27;;;;;;;6.60;80.69;97538.47;5076481;28;20082;-74
2023/11/12 19:28:15;;;;;;;14.48;12.10;;;;;;;6.67;81.09;97544.50;5108472;28;20039;-74
2023/11/12 19:30:40;;;;;;;13.90;12.35;;;;;;;6.63;80.65;97548.69;5093080;28;20043;-75
2023/11/12 19:33:07;;;;;;;14.93;11.90;;;;;;;6.69;80.92;97566.50;5058246;28;20023;-74
2023/11/12 19:35:36;;;;;;;14.02;11.55;;;;;;;6.77;80.71;97560.75;5075000;28;20044;-74
2023/11/12 19:38:02;;;;;;;14.00;11.65;;;;;;;6.76;80.33;97558.34;5092810;28;20024;-74
2023/11/12 19:40:28;;;;;;;15.23;11.98;;;;;;;6.72;80.90;97541.13;5054949;28;20078;-73
2023/11/12 19:42:53;;;;;;;14.05;12.15;;;;;;;6.77;81.44;97558.09;5058151;28;20024;-73
2023/11/12 19:45:19;;;;;;;14.10;11.73;;;;;;;6.80;81.05;97559.47;5074998;28;20127;-74
2023/11/12 19:47:45;;;;;;;14.10;11.45;;;;;;;6.77;80.90;97555.41;5074394;28;20047;-75
2023/11/12 19:50:11;;;;;;;14.25;12.75;;;;;;;6.70;81.43;97556.56;5058564;28;20036;-74
2023/11/12 19:52:40;;;;;;;14.15;11.77;;;;;;;6.74;80.40;97566.59;5058307;28;20016;-74
2023/11/12 19:55:05;;;;;;;15.88;13.80;;;;;;;6.72;81.43;97566.00;5074702;28;20090;-73
2023/11/12 19:57:31;;;;;;;18.95;15.43;;;;;;;6.77;81.31;97576.00;5074000;28;20032;-74
2023/11/12 19:59:57;;;;;;;16.20;13.23;;;;;;;6.70;80.86;97560.06;5074462;28;20031;-74
2023/11/12 20:02:23;;;;;;;17.00;14.02;;;;;;;6.81;81.74;97582.53;5074074;28;20110;-74
2023/11/12 20:04:48;;;;;;;15.77;13.75;;;;;;;6.71;81.19;97560.91;5092561;28;20062;-74
2023/11/12 20:07:17;;;;;;;15.80;14.10;;;;;;;6.76;80.96;97575.22;5075171;28;20024;-74
2023/11/12 20:09:43;;;;;;;16.90;13.68;;;;;;;6.75;80.85;97556.69;5059059;28;20036;-74
2023/11/12 20:12:12;;;;;;;16.05;14.15;;;;;;;6.73;81.45;97564.16;5074859;28;20024;-74
2023/11/12 20:14:38;;;;;;;19.10;15.38;;;;;;;6.73;81.28;97573.00;5093325;28;20043;-75
2023/11/12 20:17:03;;;;;;;17.38;14.85;;;;;;;6.78;80.60;97594.50;5074720;28;20016;-74
2023/11/12 20:19:30;;;;;;;16.67;14.57;;;;;;;6.77;81.31;97587.53;5093106;28;20111;-75
2023/11/12 20:21:55;;;;;;;15.80;14.13;;;;;;;6.65;81.57;97576.00;5058768;28;20077;-72
2023/11/12 20:24:21;;;;;;;18.33;14.23;;;;;;;6.79;81.08;97601.47;5081806;28;20557;-71
2023/11/12 20:26:49;;;;;;;19.27;16.05;;;;;;;6.70;81.00;97594.84;5090221;28;20027;-72
2023/11/12 20:29:15;;;;;;;20.23;16.00;;;;;;;6.71;81.19;97615.22;5074592;28;20035;-71
2023/11/12 20:31:41;;;;;;;21.25;16.70;;;;;;;6.63;81.00;97612.88;5074777;28;20149;-71
2023/11/12 20:34:07;;;;;;;21.17;15.75;;;;;;;6.64;81.20;97640.47;5074893;28;20032;-72
2023/11/12 20:36:34;;;;;;;19.42;16.17;;;;;;;6.74;80.54;97654.91;5091989;28;20030;-72
2023/11/12 20:39:03;;;;;;;20.45;14.93;;;;;;;6.78;81.73;97637.31;5058126;28;20067;-72
2023/11/12 20:41:32;;;;;;;21.52;16.52;;;;;;;6.73;80.64;97618.47;5057808;28;20036;-72
2023/11/12 20:44:01;;;;;;;19.98;16.08;;;;;;;6.78;80.68;97615.91;5074069;28;20142;-71
2023/11/12 20:46:26;;;;;;;20.38;16.17;;;;;;;6.76;81.22;97612.66;5057398;28;20116;-73
2023/11/12 20:48:59;;;;;;;18.13;14.68;;;;;;;6.74;81.25;97604.06;5074586;28;20032;-71
2023/11/12 20:51:26;;;;;;;17.55;14.98;;;;;;;6.63;81.05;97599.50;5075192;28;20042;-72
2023/11/12 20:53:52;;;;;;;20.38;15.50;;;;;;;6.75;80.78;97605.66;5092319;28;20070;-72
2023/11/12 20:56:18;;;;;;;16.13;14.23;;;;;;;6.67;80.95;97595.34;5073617;28;20123;-72
2023/11/12 20:58:45;;;;;;;14.63;12.55;;;;;;;6.71;81.11;97593.00;5054522;28;20044;-73
2023/11/12 21:01:10;;;;;;;17.67;14.63;;;;;;;6.57;81.00;97565.69;5074541;28;20032;-72
2023/11/12 21:03:37;;;;;;;15.85;14.05;;;;;;;6.59;79.95;97573.47;5073968;28;20035;-72
2023/11/12 21:06:04;;;;;;;17.05;14.07;;;;;;;6.64;80.67;97577.06;5061661;28;20024;-72
2023/11/12 21:08:29;;;;;;;17.58;14.60;;;;;;;6.62;80.32;97581.84;5091072;28;20085;-72
2023/11/12 21:10:55;;;;;;;17.65;14.90;;;;;;;6.49;80.77;97579.41;5061647;28;20408;-72
2023/11/12 21:13:20;;;;;;;21.38;16.40;;;;;;;6.55;80.84;97588.38;5074065;28;20104;-72
2023/11/12 21:15:47;;;;;;;20.40;15.63;;;;;;;6.56;80.84;97580.09;5057095;28;20054;-72
2023/11/12 21:18:12;;;;;;;21.75;16.23;;;;;;;6.54;80.84;97579.53;5076244;28;20019;-72
2023/11/12 21:20:38;;;;;;;19.25;16.23;;;;;;;6.47;81.17;97580.69;5095928;28;20039;-69
2023/11/12 21:23:03;;;;;;;19.33;16.73;;;;;;;6.52;81.38;97592.31;5095773;28;20107;-71
2023/11/12 21:25:29;;;;;;;20.15;16.65;;;;;;;6.51;80.56;97598.69;5088140;28;20043;-73
2023/11/12 21:27:54;;;;;;;15.65;13.93;;;;;;;6.52;80.19;97608.38;5071676;28;20024;-72
2023/11/12 21:30:24;;;;;;;19.23;14.63;;;;;;;6.48;80.91;97601.88;5095761;28;20032;-72
2023/11/12 21:32:56;;;;;;;16.10;13.55;;;;;;;6.52;80.84;97613.72;5080231;28;20051;-72
2023/11/12 21:35:26;;;;;;;18.77;15.00;;;;;;;6.57;81.12;97618.38;5078025;28;20395;-72
2023/11/12 21:37:52;;;;;;;17.23;13.90;;;;;;;6.59;81.14;97640.34;5059098;28;20492;-72
2023/11/12 21:40:18;;;;;;;16.95;13.88;;;;;;;6.50;80.87;97637.22;5060478;28;20055;-72
2023/11/12 21:42:44;;;;;;;16.25;13.40;;;;;;;6.55;81.93;97658.72;5060709;28;20078;-73
2023/11/12 21:45:10;;;;;;;16.40;13.15;;;;;;;6.62;81.45;97648.72;5044325;28;20047;-72
2023/11/12 21:47:36;;;;;;;18.48;14.98;;;;;;;6.50;81.33;97626.50;5096888;28;20052;-72
2023/11/12 21:50:01;;;;;;;18.55;14.45;;;;;;;6.59;81.23;97643.84;5087081;28;20068;-73
2023/11/12 21:52:27;;;;;;;17.48;14.82;;;;;;;6.60;82.11;97650.84;5088301;28;20036;-72
2023/11/12 21:54:52;;;;;;;15.90;13.75;;;;;;;6.65;81.54;97669.66;5082806;28;20093;-72
2023/11/12 21:57:18;;;;;;;16.85;13.35;;;;;;;6.60;81.63;97656.19;5081168;28;20028;-72
2023/11/12 21:59:44;;;;;;;17.52;13.93;;;;;;;6.62;80.76;97638.03;5087188;28;20039;-71
2023/11/12 22:02:10;;;;;;;16.85;13.70;;;;;;;6.65;81.46;97656.28;5089790;28;20031;-73
2023/11/12 22:04:36;;;;;;;16.02;13.48;;;;;;;6.59;82.09;97654.53;5094018;28;20040;-71
2023/11/12 22:07:02;;;;;;;17.23;13.95;;;;;;;6.63;81.19;97645.00;5077689;28;20077;-73
2023/11/12 22:09:28;;;;;;;16.20;13.60;;;;;;;6.71;81.36;97663.38;5088657;28;20521;-73
2023/11/12 22:11:54;;;;;;;15.93;14.02;;;;;;;6.66;80.83;97655.25;5058957;28;20036;-73
2023/11/12 22:14:21;;;;;;;17.85;14.32;;;;;;;6.71;80.92;97655.34;5061158;28;20036;-73
2023/11/12 22:16:46;;;;;;;18.23;15.02;;;;;;;6.67;81.04;97656.88;5076211;28;20024;-71
2023/11/12 22:19:12;;;;;;;17.83;14.32;;;;;;;6.67;80.88;97672.13;5094560;28;20479;-73
2023/11/12 22:21:44;;;;;;;19.67;14.63;;;;;;;6.66;81.06;97667.78;5076598;28;20120;-72
2023/11/12 22:24:09;;;;;;;24.58;15.93;;;;;;;6.65;80.86;97675.00;5060543;28;20039;-72
2023/11/12 22:26:39;;;;;;;20.95;16.52;;;;;;;6.73;80.57;97690.72;5094155;28;20498;-72
2023/11/12 22:29:04;;;;;;;20.35;15.90;;;;;;;6.65;80.43;97679.56;5059148;28;20043;-72
2023/11/12 22:31:30;;;;;;;18.83;15.52;;;;;;;6.67;81.52;97689.00;5110029;28;20028;-72
2023/11/12 22:33:56;;;;;;;19.20;15.82;;;;;;;6.65;81.33;97680.34;5105026;28;20071;-72
2023/11/12 22:36:21;;;;;;;18.55;14.30;;;;;;;6.60;81.21;97674.09;5075730;28;20048;-71
2023/11/12 22:38:46;;;;;;;16.40;13.65;;;;;;;6.63;80.93;97687.78;5049704;28;20785;-71
2023/11/12 22:41:12;;;;;;;15.57;13.77;;;;;;;6.67;81.88;97694.34;5093768;28;20468;-71
2023/11/12 22:43:38;;;;;;;16.25;14.18;;;;;;;6.66;80.91;97697.22;5094033;28;20028;-70
2023/11/12 22:46:04;;;;;;;17.85;14.23;;;;;;;6.65;80.71;97707.09;5065247;28;20016;-72
2023/11/12 22:48:31;;;;;;;17.33;14.48;;;;;;;6.68;80.63;97712.00;5096823;28;20043;-72
2023/11/12 22:50:56;;;;;;;16.92;14.40;;;;;;;6.65;81.01;97696.41;5096714;28;20024;-72
2023/11/12 22:53:22;;;;;;;17.42;15.20;;;;;;;6.66;80.92;97692.69;5076514;28;20043;-72
2023/11/12 22:55:47;;;;;;;18.35;14.68;;;;;;;6.64;81.08;97681.41;5075916;28;20126;-73
2023/11/12 22:58:12;;;;;;;15.82;14.00;;;;;;;6.59;81.56;97664.41;5075326;28;20089;-72
2023/11/12 23:00:46;;;;;;;17.13;15.07;;;;;;;6.54;81.50;97673.13;5095689;28;20031;-72
2023/11/12 23:03:13;;;;;;;17.48;14.93;;;;;;;6.61;81.41;97689.91;5075425;28;20032;-71
2023/11/12 23:05:39;;;;;;;18.65;14.52;;;;;;;6.56;81.59;97689.78;5093281;28;20012;-71
2023/11/12 23:08:07;;;;;;;19.00;14.20;;;;;;;6.56;81.64;97697.00;5093159;28;20514;-71
2023/11/12 23:10:36;;;;;;;16.90;14.52;;;;;;;6.61;81.49;97700.59;5075774;28;20388;-70
2023/11/12 23:13:02;;;;;;;17.67;14.95;;;;;;;6.49;81.11;97694.41;5075114;28;20055;-71
2023/11/12 23:15:28;;;;;;;17.27;14.40;;;;;;;6.48;81.67;97706.19;5061841;28;20480;-71
2023/11/12 23:17:53;;;;;;;18.02;14.57;;;;;;;6.55;81.43;97714.91;5097880;28;20039;-73
2023/11/12 23:20:22;;;;;;;16.95;14.65;;;;;;;6.49;80.89;97698.97;5090652;28;20133;-71
2023/11/12 23:22:47;;;;;;;17.45;14.85;;;;;;;6.54;81.28;97699.88;5059503;28;20036;-71
2023/11/12 23:25:14;;;;;;;17.60;14.60;;;;;;;6.55;80.83;97700.72;5109248;28;20016;-71
2023/11/12 23:27:41;;;;;;;16.60;14.60;;;;;;;6.52;80.87;97703.84;5097564;28;20040;-70
2023/11/12 23:30:07;;;;;;;16.65;14.38;;;;;;;6.53;81.02;97698.28;5086446;28;20391;-70
2023/11/12 23:32:33;;;;;;;16.05;14.32;;;;;;;6.48;81.74;97695.47;5065917;28;20036;-70
2023/11/12 23:34:59;;;;;;;16.40;14.70;;;;;;;6.49;81.56;97701.66;5062127;28;20110;-70
2023/11/12 23:37:24;;;;;;;17.60;15.32;;;;;;;6.45;82.03;97703.94;5083677;28;20115;-70
2023/11/12 23:39:50;;;;;;;20.20;16.20;;;;;;;6.39;81.83;97704.06;5107710;28;20027;-71
2023/11/12 23:42:17;;;;;;;19.23;15.50;;;;;;;6.45;81.78;97709.28;5091483;28;20040;-69
2023/11/12 23:44:42;;;;;;;17.58;15.10;;;;;;;6.46;81.85;97724.31;5074490;28;20070;-71
2023/11/12 23:47:08;;;;;;;16.55;14.75;;;;;;;6.44;82.03;97728.25;5092431;28;20404;-70
2023/11/12 23:49:34;;;;;;;19.05;14.60;;;;;;;6.46;81.75;97737.69;5092612;28;20055;-72
2023/11/12 23:51:59;;;;;;;18.88;15.32;;;;;;;6.44;81.91;97729.06;5092547;28;20079;-70
2023/11/12 23:54:24;;;;;;;18.05;14.73;;;;;;;6.47;81.79;97725.94;5094690;28;20028;-70
2023/11/12 23:56:51;;;;;;;18.83;14.50;;;;;;;6.48;82.70;97730.25;5073942;28;20040;-71
2023/11/12 23:59:17;;;;;;;16.27;14.57;;;;;;;6.49;82.12;97733.75;5092411;28;20028;-70
